createdAt,value
2018-11-10T00:01:32.316Z,50.23
2018-11-10T00:03:57.473Z,48.67
2018-11-10T00:06:22.636Z,50.77
2018-11-10T00:08:47.854Z,48.37
2018-11-10T00:11:12.994Z,45.97
2018-11-10T00:13:38.138Z,49.60
2018-11-10T00:16:03.322Z,47.50
2018-11-10T00:18:28.557Z,49.70
2018-11-10T00:20:53.697Z,50.73
2018-11-10T00:23:18.837Z,51.63
2018-11-10T00:25:44.010Z,50.27
2018-11-10T00:28:09.125Z,49.73
2018-11-10T00:30:34.247Z,50.00
2018-11-10T00:33:18.329Z,52.30
2018-11-10T00:35:43.449Z,51.10
2018-11-10T00:38:08.640Z,51.33
2018-11-10T00:40:33.807Z,45.93
2018-11-10T00:42:58.921Z,50.27
2018-11-10T00:45:24.076Z,45.97
2018-11-10T00:47:49.192Z,46.17
2018-11-10T00:50:14.354Z,51.67
2018-11-10T00:52:39.598Z,46.90
2018-11-10T00:55:23.676Z,46.47
2018-11-10T00:57:48.921Z,45.53
2018-11-10T01:00:14.460Z,53.20
2018-11-10T01:02:39.590Z,46.80
2018-11-10T01:05:04.728Z,47.40
2018-11-10T01:07:30.083Z,52.53
2018-11-10T01:09:55.223Z,49.23
2018-11-10T01:12:20.374Z,51.20
2018-11-10T01:14:45.549Z,47.43
2018-11-10T01:17:10.760Z,47.47
2018-11-10T01:19:35.958Z,46.57
2018-11-10T01:22:01.150Z,50.77
2018-11-10T01:24:26.343Z,46.87
2018-11-10T01:26:51.571Z,49.10
2018-11-10T01:29:16.767Z,47.63
2018-11-10T01:31:42.330Z,52.13
2018-11-10T01:34:07.557Z,47.27
2018-11-10T01:36:32.746Z,49.87
2018-11-10T01:38:58.911Z,47.57
2018-11-10T01:41:24.097Z,48.93
2018-11-10T01:43:49.226Z,48.80
2018-11-10T01:46:14.576Z,51.93
2018-11-10T01:48:39.891Z,48.37
2018-11-10T01:51:05.389Z,50.20
2018-11-10T01:53:30.521Z,45.67
2018-11-10T01:55:55.641Z,48.33
2018-11-10T01:58:20.786Z,49.27
2018-11-10T02:00:45.880Z,49.47
2018-11-10T02:03:30.033Z,45.23
2018-11-10T02:05:55.387Z,44.93
2018-11-10T02:08:20.582Z,49.00
2018-11-10T02:10:45.686Z,50.77
2018-11-10T02:13:10.835Z,49.27
2018-11-10T02:15:36.015Z,43.67
2018-11-10T02:18:01.151Z,46.07
2018-11-10T02:20:26.298Z,45.17
2018-11-10T02:22:51.408Z,47.23
2018-11-10T02:25:35.487Z,48.50
2018-11-10T02:28:00.660Z,48.23
2018-11-10T02:30:25.793Z,47.37
2018-11-10T02:32:50.903Z,47.50
2018-11-10T02:35:16.007Z,44.27
2018-11-10T02:37:41.485Z,47.70
2018-11-10T02:40:07.574Z,45.07
2018-11-10T02:42:32.668Z,48.67
2018-11-10T02:44:57.808Z,46.30
2018-11-10T02:47:22.924Z,48.40
2018-11-10T02:49:48.128Z,46.50
2018-11-10T02:54:49.279Z,47.73
2018-11-10T02:57:14.444Z,46.47
2018-11-10T02:59:39.572Z,43.53
2018-11-10T03:02:04.682Z,41.43
2018-11-10T03:04:29.787Z,41.03
2018-11-10T03:07:13.867Z,40.97
2018-11-10T03:09:38.976Z,43.70
2018-11-10T03:12:04.124Z,42.27
2018-11-10T03:14:29.207Z,41.27
2018-11-10T03:16:54.286Z,42.53
2018-11-10T03:19:19.430Z,39.83
2018-11-10T03:21:44.589Z,40.10
2018-11-10T03:24:09.813Z,41.27
2018-11-10T03:26:34.911Z,34.40
2018-11-10T03:29:00.054Z,39.63
2018-11-10T03:31:25.167Z,37.37
2018-11-10T03:33:50.250Z,37.23
2018-11-10T03:36:15.412Z,39.33
2018-11-10T03:38:40.528Z,34.73
2018-11-10T03:41:05.805Z,38.77
2018-11-10T03:43:30.930Z,33.93
2018-11-10T03:45:56.084Z,35.40
2018-11-10T03:48:21.263Z,35.90
2018-11-10T03:50:46.317Z,33.27
2018-11-10T03:53:11.437Z,33.30
2018-11-10T03:55:36.506Z,34.57
2018-11-10T03:58:01.605Z,33.07
2018-11-10T04:00:26.700Z,33.53
2018-11-10T04:02:51.774Z,33.80
2018-11-10T04:05:16.864Z,32.53
2018-11-10T04:07:43.235Z,33.90
2018-11-10T04:10:08.334Z,34.20
2018-11-10T04:12:33.433Z,32.57
2018-11-10T04:14:58.490Z,32.37
2018-11-10T04:17:26.259Z,31.53
2018-11-10T04:19:51.330Z,31.73
2018-11-10T04:22:21.331Z,31.67
2018-11-10T04:24:46.424Z,32.90
2018-11-10T04:27:30.721Z,35.00
2018-11-10T04:29:55.847Z,32.90
2018-11-10T04:32:20.928Z,32.10
2018-11-10T04:34:45.991Z,34.70
2018-11-10T04:40:06.888Z,31.73
2018-11-10T04:42:31.987Z,29.03
2018-11-10T04:44:57.041Z,29.13
2018-11-10T04:47:22.149Z,32.97
2018-11-10T04:49:47.246Z,32.07
2018-11-10T04:52:12.296Z,32.50
2018-11-10T04:54:37.390Z,29.97
2018-11-10T04:57:02.474Z,32.90
2018-11-10T04:59:27.572Z,34.40
2018-11-10T05:01:52.683Z,30.40
2018-11-10T05:04:17.752Z,32.90
2018-11-10T05:06:42.873Z,26.53
2018-11-10T05:09:09.475Z,28.60
2018-11-10T05:11:34.554Z,28.37
2018-11-10T05:13:59.665Z,27.87
2018-11-10T05:16:24.778Z,27.40
2018-11-10T05:18:49.932Z,27.03
2018-11-10T05:21:15.081Z,29.47
2018-11-10T05:26:18.982Z,25.40
2018-11-10T05:28:44.067Z,26.23
2018-11-10T05:31:09.242Z,23.97
2018-11-10T05:33:34.341Z,27.70
2018-11-10T05:35:59.484Z,25.33
2018-11-10T05:38:24.784Z,27.97
2018-11-10T05:43:45.368Z,23.80
2018-11-10T05:46:10.495Z,24.83
2018-11-10T05:48:35.589Z,21.73
2018-11-10T05:51:00.683Z,24.53
2018-11-10T05:53:25.800Z,21.63
2018-11-10T05:58:28.507Z,24.20
2018-11-10T06:01:12.552Z,24.80
2018-11-10T06:03:38.063Z,23.43
2018-11-10T06:06:03.269Z,23.03
2018-11-10T06:08:28.371Z,21.93
2018-11-10T06:10:53.478Z,23.73
2018-11-10T06:13:18.585Z,26.03
2018-11-10T06:15:43.741Z,23.00
2018-11-10T06:18:27.820Z,25.27
2018-11-10T06:20:52.937Z,23.20
2018-11-10T06:23:37.096Z,25.77
2018-11-10T06:26:02.418Z,25.90
2018-11-10T06:28:27.533Z,25.87
2018-11-10T06:30:52.677Z,27.23
2018-11-10T06:33:17.816Z,25.53
2018-11-10T06:35:42.954Z,27.07
2018-11-10T06:38:08.135Z,28.10
2018-11-10T06:40:33.384Z,25.00
2018-11-10T06:42:58.498Z,24.63
2018-11-10T06:45:23.630Z,24.47
2018-11-10T06:47:48.903Z,23.73
2018-11-10T06:55:26.056Z,24.67
2018-11-10T06:57:51.141Z,24.00
2018-11-10T07:00:16.727Z,24.63
2018-11-10T07:02:42.172Z,25.77
2018-11-10T07:05:07.870Z,25.63
2018-11-10T07:07:33.085Z,24.57
2018-11-10T07:09:58.179Z,26.60
2018-11-10T07:12:23.463Z,23.50
2018-11-10T07:14:48.583Z,23.80
2018-11-10T07:17:13.724Z,22.73
2018-11-10T07:19:38.927Z,24.97
2018-11-10T07:22:04.082Z,21.80
2018-11-10T07:24:29.229Z,22.60
2018-11-10T07:26:54.379Z,23.23
2018-11-10T07:29:19.520Z,24.23
2018-11-10T07:31:44.798Z,25.80
2018-11-10T07:34:09.958Z,24.63
2018-11-10T07:36:35.301Z,26.40
2018-11-10T07:39:00.623Z,26.03
2018-11-10T07:41:25.894Z,23.10
2018-11-10T07:43:51.197Z,26.23
2018-11-10T07:46:16.406Z,25.43
2018-11-10T07:48:41.668Z,25.23
2018-11-10T07:51:07.045Z,25.23
2018-11-10T07:53:32.242Z,24.70
2018-11-10T07:55:57.503Z,28.00
2018-11-10T07:58:22.696Z,27.27
2018-11-10T08:00:47.938Z,26.00
2018-11-10T08:03:13.114Z,24.77
2018-11-10T08:05:38.247Z,24.27
2018-11-10T08:10:44.727Z,24.70
2018-11-10T08:13:10.300Z,24.60
2018-11-10T08:15:35.761Z,23.80
2018-11-10T08:18:01.019Z,24.47
2018-11-10T08:20:27.101Z,22.27
2018-11-10T08:25:55.468Z,23.17
2018-11-10T08:28:20.560Z,23.73
2018-11-10T08:30:45.676Z,22.30
2018-11-10T08:33:10.841Z,22.93
2018-11-10T08:38:31.415Z,24.13
2018-11-10T08:40:56.525Z,22.07
2018-11-10T08:43:21.727Z,23.43
2018-11-10T08:45:46.845Z,25.90
2018-11-10T08:48:16.773Z,24.17
2018-11-10T08:51:08.401Z,23.70
2018-11-10T08:53:34.476Z,26.27
2018-11-10T08:55:59.693Z,28.70
2018-11-10T08:58:24.878Z,30.90
2018-11-10T09:00:49.972Z,26.63
2018-11-10T09:03:15.136Z,26.63
2018-11-10T09:05:59.220Z,25.43
2018-11-10T09:11:03.817Z,29.83
2018-11-10T09:13:28.955Z,24.80
2018-11-10T09:15:54.109Z,23.80
2018-11-10T09:18:19.247Z,24.13
2018-11-10T09:20:44.660Z,23.60
2018-11-10T09:23:09.804Z,21.63
2018-11-10T09:25:35.208Z,21.03
2018-11-10T09:28:01.293Z,20.00
2018-11-10T09:30:26.856Z,20.27
2018-11-10T09:32:52.072Z,18.37
2018-11-10T09:35:17.285Z,16.63
2018-11-10T09:37:42.420Z,18.00
2018-11-10T09:40:27.348Z,18.80
2018-11-10T09:42:52.503Z,20.80
2018-11-10T09:45:18.190Z,18.10
2018-11-10T09:47:43.352Z,18.47
2018-11-10T09:50:27.484Z,17.80
2018-11-10T09:52:54.452Z,17.90
2018-11-10T09:55:20.785Z,17.23
2018-11-10T09:57:45.975Z,22.03
2018-11-10T10:00:33.766Z,16.10
2018-11-10T10:02:59.240Z,17.67
2018-11-10T10:05:24.401Z,17.23
2018-11-10T10:07:49.517Z,17.37
2018-11-10T10:10:16.152Z,16.50
2018-11-10T10:12:41.654Z,17.03
2018-11-10T10:15:08.221Z,16.47
2018-11-10T10:17:33.417Z,19.63
2018-11-10T10:19:58.634Z,19.57
2018-11-10T10:22:23.767Z,21.10
2018-11-10T10:24:49.667Z,21.20
2018-11-10T10:27:14.823Z,18.20
2018-11-10T10:29:40.021Z,22.00
2018-11-10T10:32:05.213Z,19.27
2018-11-10T10:34:30.637Z,22.80
2018-11-10T10:36:55.675Z,23.10
2018-11-10T10:39:20.866Z,23.80
2018-11-10T10:41:45.950Z,22.47
2018-11-10T10:44:11.595Z,23.90
2018-11-10T10:46:36.776Z,23.10
2018-11-10T10:49:02.080Z,22.90
2018-11-10T10:51:27.181Z,25.00
2018-11-10T10:53:52.264Z,24.10
2018-11-10T10:56:19.441Z,28.83
2018-11-10T10:58:44.622Z,25.87
2018-11-10T11:01:28.474Z,26.00
2018-11-10T11:06:49.319Z,25.40
2018-11-10T11:09:14.839Z,25.20
2018-11-10T11:11:40.149Z,25.93
2018-11-10T11:14:05.374Z,27.03
2018-11-10T11:16:30.532Z,26.47
2018-11-10T11:18:55.786Z,27.17
2018-11-10T11:23:59.441Z,28.03
2018-11-10T11:26:24.566Z,32.63
2018-11-10T11:29:08.775Z,26.90
2018-11-10T11:31:33.798Z,26.33
2018-11-10T11:33:58.949Z,28.67
2018-11-10T11:36:24.135Z,25.37
2018-11-10T11:38:49.282Z,26.77
2018-11-10T11:41:14.595Z,26.00
2018-11-10T11:43:39.729Z,29.13
2018-11-10T11:46:04.912Z,25.83
2018-11-10T11:48:30.147Z,26.40
2018-11-10T11:50:55.571Z,29.70
2018-11-10T11:53:20.790Z,31.37
2018-11-10T11:55:45.961Z,26.03
2018-11-10T11:58:11.345Z,28.90
2018-11-10T12:00:36.229Z,31.87
2018-11-10T12:03:01.370Z,27.10
2018-11-10T12:08:03.462Z,29.20
2018-11-10T12:10:28.732Z,28.20
2018-11-10T12:12:53.905Z,27.27
2018-11-10T12:15:21.077Z,22.60
2018-11-10T12:17:46.057Z,23.70
2018-11-10T12:20:12.759Z,23.67
2018-11-10T12:25:33.752Z,24.77
2018-11-10T12:27:59.932Z,23.97
2018-11-10T12:30:25.975Z,23.43
2018-11-10T12:32:51.101Z,22.03
2018-11-10T12:35:16.608Z,24.20
2018-11-10T12:37:47.034Z,26.67
2018-11-10T12:40:13.514Z,22.17
2018-11-10T12:42:39.230Z,20.70
2018-11-10T12:45:23.422Z,21.30
2018-11-10T12:47:48.589Z,23.80
2018-11-10T12:50:14.898Z,20.90
2018-11-10T12:52:40.607Z,21.03
2018-11-10T12:55:06.507Z,20.47
2018-11-10T12:57:31.665Z,21.27
2018-11-10T12:59:56.864Z,20.87
2018-11-10T13:02:22.165Z,21.30
2018-11-10T13:04:47.493Z,24.13
2018-11-10T13:07:12.791Z,20.77
2018-11-10T13:09:37.895Z,19.20
2018-11-10T13:12:03.264Z,18.80
2018-11-10T13:14:29.408Z,20.07
2018-11-10T13:16:56.841Z,22.20
2018-11-10T13:19:23.690Z,20.33
2018-11-10T13:21:48.983Z,22.20
2018-11-10T13:24:14.172Z,21.73
2018-11-10T13:26:39.239Z,16.77
2018-11-10T13:29:04.360Z,19.53
2018-11-10T13:31:29.751Z,20.33
2018-11-10T13:33:54.646Z,20.57
2018-11-10T13:36:19.906Z,20.73
2018-11-10T13:38:45.048Z,18.83
2018-11-10T13:41:10.621Z,17.00
2018-11-10T13:43:36.194Z,18.70
2018-11-10T13:46:01.757Z,19.57
2018-11-10T13:48:26.918Z,18.27
2018-11-10T13:50:52.235Z,20.73
2018-11-10T13:53:17.352Z,21.30
2018-11-10T13:55:42.820Z,22.30
2018-11-10T14:01:07.401Z,19.03
2018-11-10T14:03:32.567Z,18.17
2018-11-10T14:05:57.746Z,19.57
2018-11-10T14:08:22.934Z,18.13
2018-11-10T14:10:48.165Z,19.60
2018-11-10T14:13:13.337Z,19.63
2018-11-10T14:15:38.487Z,18.53
2018-11-10T14:18:03.658Z,19.97
2018-11-10T14:20:28.871Z,21.67
2018-11-10T14:22:54.051Z,22.87
2018-11-10T14:25:19.250Z,21.47
2018-11-10T14:27:44.997Z,22.40
2018-11-10T14:30:12.491Z,22.27
2018-11-10T14:32:37.664Z,21.37
2018-11-10T14:35:02.754Z,21.00
2018-11-10T14:40:25.561Z,20.97
2018-11-10T14:42:50.701Z,20.57
2018-11-10T14:45:17.314Z,23.47
2018-11-10T14:47:43.390Z,24.40
2018-11-10T14:50:09.633Z,26.03
2018-11-10T14:52:35.424Z,23.53
2018-11-10T14:55:00.512Z,25.73
2018-11-10T14:57:25.708Z,25.23
2018-11-10T14:59:50.855Z,25.83
2018-11-10T15:02:16.079Z,25.97
2018-11-10T15:04:41.296Z,25.77
2018-11-10T15:07:17.735Z,24.73
2018-11-10T15:09:44.278Z,21.37
2018-11-10T15:12:09.489Z,26.57
2018-11-10T15:14:35.450Z,24.03
2018-11-10T15:17:01.231Z,24.43
2018-11-10T15:19:26.913Z,22.70
2018-11-10T15:21:52.167Z,25.10
2018-11-10T15:24:17.727Z,23.10
2018-11-10T15:26:42.859Z,23.27
2018-11-10T15:29:07.985Z,23.87
2018-11-10T15:31:33.182Z,20.27
2018-11-10T15:33:58.353Z,21.17
2018-11-10T15:36:23.450Z,24.53
2018-11-10T15:38:48.597Z,22.50
2018-11-10T15:41:13.746Z,20.87
2018-11-10T15:43:38.944Z,21.20
2018-11-10T15:46:04.623Z,22.27
2018-11-10T15:48:29.776Z,21.43
2018-11-10T15:50:54.870Z,19.53
2018-11-10T15:53:20.049Z,21.00
2018-11-10T15:55:45.165Z,19.90
2018-11-10T15:58:10.261Z,22.60
2018-11-10T16:00:35.369Z,21.03
2018-11-10T16:03:00.496Z,20.87
2018-11-10T16:05:25.652Z,23.33
2018-11-10T16:10:29.488Z,21.10
2018-11-10T16:12:54.597Z,21.43
2018-11-10T16:15:19.703Z,21.53
2018-11-10T16:18:03.784Z,19.77
2018-11-10T16:20:28.894Z,22.80
2018-11-10T16:22:54.095Z,19.83
2018-11-10T16:25:19.519Z,18.63
2018-11-10T16:27:44.756Z,27.43
2018-11-10T16:30:12.044Z,23.03
2018-11-10T16:32:37.140Z,21.23
2018-11-10T16:35:02.281Z,20.70
2018-11-10T16:37:27.409Z,20.60
2018-11-10T16:39:52.520Z,18.63
2018-11-10T16:42:36.622Z,21.00
2018-11-10T16:45:21.423Z,22.00
2018-11-10T16:47:46.546Z,20.70
2018-11-10T16:50:12.022Z,18.47
2018-11-10T16:52:37.200Z,20.77
2018-11-10T16:55:21.238Z,17.67
2018-11-10T16:58:05.334Z,18.73
2018-11-10T17:00:30.442Z,17.43
2018-11-10T17:02:55.607Z,20.37
2018-11-10T17:05:20.754Z,18.20
2018-11-10T17:07:45.920Z,21.47
2018-11-10T17:10:22.837Z,19.23
2018-11-10T17:12:47.935Z,21.90
2018-11-10T17:15:32.054Z,22.20
2018-11-10T17:17:57.154Z,22.63
2018-11-10T17:20:22.370Z,21.17
2018-11-10T17:23:06.568Z,19.23
2018-11-10T17:25:31.673Z,20.37
2018-11-10T17:27:56.907Z,20.20
2018-11-10T17:30:22.474Z,17.53
2018-11-10T17:32:47.503Z,16.80
2018-11-10T17:35:31.667Z,16.80
2018-11-10T17:37:56.835Z,20.37
2018-11-10T17:40:22.090Z,18.37
2018-11-10T17:42:47.151Z,19.17
2018-11-10T17:45:13.737Z,17.03
2018-11-10T17:50:16.548Z,20.37
2018-11-10T17:52:41.993Z,17.57
2018-11-10T17:55:07.461Z,17.20
2018-11-10T17:57:32.642Z,17.30
2018-11-10T17:59:57.736Z,18.30
2018-11-10T18:02:23.006Z,15.17
2018-11-10T18:04:48.106Z,17.13
2018-11-10T18:07:13.225Z,15.20
2018-11-10T18:09:38.354Z,18.03
2018-11-10T18:12:03.496Z,19.03
2018-11-10T18:14:28.587Z,17.27
2018-11-10T18:16:53.809Z,18.17
2018-11-10T18:19:18.928Z,18.57
2018-11-10T18:22:03.066Z,19.27
2018-11-10T18:24:29.131Z,15.63
2018-11-10T18:29:31.267Z,20.50
2018-11-10T18:31:56.456Z,18.20
2018-11-10T18:34:21.650Z,21.57
2018-11-10T18:36:46.789Z,19.97
2018-11-10T18:39:12.034Z,17.60
2018-11-10T18:41:37.140Z,19.07
2018-11-10T18:44:02.274Z,17.40
2018-11-10T18:46:27.432Z,16.90
2018-11-10T18:48:52.554Z,16.77
2018-11-10T18:51:17.660Z,15.67
2018-11-10T18:53:42.773Z,17.00
2018-11-10T18:56:07.866Z,16.80
2018-11-10T18:58:33.014Z,18.30
2018-11-10T19:00:58.138Z,17.53
2018-11-10T19:03:25.513Z,17.47
2018-11-10T19:05:50.684Z,16.33
2018-11-10T19:08:15.860Z,16.93
2018-11-10T19:10:40.976Z,14.60
2018-11-10T19:13:25.108Z,16.17
2018-11-10T19:15:50.198Z,15.77
2018-11-10T19:18:15.334Z,12.93
2018-11-10T19:20:40.453Z,16.57
2018-11-10T19:25:44.587Z,15.97
2018-11-10T19:28:09.687Z,13.70
2018-11-10T19:30:34.818Z,14.80
2018-11-10T19:32:59.972Z,17.50
2018-11-10T19:35:25.126Z,17.13
2018-11-10T19:37:50.232Z,14.50
2018-11-10T19:40:15.428Z,12.70
2018-11-10T19:42:41.157Z,13.30
2018-11-10T19:45:07.436Z,14.40
2018-11-10T19:47:32.618Z,13.87
2018-11-10T19:49:57.754Z,11.47
2018-11-10T19:52:22.846Z,12.07
2018-11-10T19:54:47.957Z,15.67
2018-11-10T19:57:13.064Z,13.27
2018-11-10T19:59:38.170Z,12.43
2018-11-10T20:02:03.314Z,13.50
2018-11-10T20:04:28.481Z,14.13
2018-11-10T20:06:53.677Z,12.37
2018-11-10T20:09:18.749Z,15.00
2018-11-10T20:11:43.889Z,14.40
2018-11-10T20:14:09.036Z,16.83
2018-11-10T20:16:53.126Z,16.57
2018-11-10T20:19:18.264Z,16.47
2018-11-10T20:21:43.674Z,16.43
2018-11-10T20:24:08.799Z,15.57
2018-11-10T20:26:33.933Z,15.07
2018-11-10T20:28:59.102Z,17.60
2018-11-10T20:31:24.370Z,19.23
2018-11-10T20:33:49.484Z,15.63
2018-11-10T20:36:33.585Z,15.97
2018-11-10T20:38:58.806Z,16.37
2018-11-10T20:41:23.836Z,16.13
2018-11-10T20:43:48.968Z,16.43
2018-11-10T20:46:14.145Z,17.67
2018-11-10T20:48:39.278Z,17.83
2018-11-10T20:51:04.561Z,18.40
2018-11-10T20:53:29.877Z,17.87
2018-11-10T20:55:55.036Z,17.13
2018-11-10T20:58:32.732Z,16.27
2018-11-10T21:00:57.863Z,16.57
2018-11-10T21:03:22.956Z,17.67
2018-11-10T21:05:48.178Z,16.07
2018-11-10T21:08:13.235Z,19.10
2018-11-10T21:10:57.311Z,17.30
2018-11-10T21:13:41.413Z,17.50
2018-11-10T21:16:06.618Z,17.40
2018-11-10T21:18:32.023Z,16.90
2018-11-10T21:20:57.147Z,17.10
2018-11-10T21:23:22.263Z,16.83
2018-11-10T21:25:47.416Z,14.73
2018-11-10T21:28:12.617Z,15.90
2018-11-10T21:30:37.749Z,15.03
2018-11-10T21:33:21.814Z,15.23
2018-11-10T21:36:06.024Z,13.30
2018-11-10T21:38:31.141Z,15.83
2018-11-10T21:40:56.243Z,15.20
2018-11-10T21:43:21.383Z,13.30
2018-11-10T21:48:23.343Z,13.83
2018-11-10T21:50:48.483Z,13.33
2018-11-10T21:53:13.646Z,15.50
2018-11-10T21:55:38.761Z,13.47
2018-11-10T21:58:03.873Z,15.30
2018-11-10T22:00:29.054Z,16.30
2018-11-10T22:02:54.195Z,14.13
2018-11-10T22:05:19.807Z,15.00
2018-11-10T22:07:44.915Z,12.73
2018-11-10T22:10:12.423Z,17.03
2018-11-10T22:12:37.570Z,14.13
2018-11-10T22:15:02.663Z,14.80
2018-11-10T22:17:27.802Z,14.23
2018-11-10T22:19:52.890Z,15.57
2018-11-10T22:22:18.057Z,14.80
2018-11-10T22:24:43.219Z,13.67
2018-11-10T22:27:08.353Z,14.53
2018-11-10T22:29:33.588Z,13.80
2018-11-10T22:31:58.707Z,16.00
2018-11-10T22:34:23.830Z,13.87
2018-11-10T22:37:07.916Z,12.53
2018-11-10T22:39:33.027Z,15.23
2018-11-10T22:41:58.183Z,13.90
2018-11-10T22:44:23.282Z,14.17
2018-11-10T22:46:48.381Z,12.13
2018-11-10T22:49:13.509Z,14.23
2018-11-10T22:51:38.591Z,11.27
2018-11-10T22:54:03.734Z,14.07
2018-11-10T22:56:47.836Z,13.90
2018-11-10T22:59:12.924Z,13.40
2018-11-10T23:01:37.993Z,13.13
2018-11-10T23:04:03.213Z,13.37
2018-11-10T23:06:47.335Z,12.33
2018-11-10T23:09:31.431Z,13.20
2018-11-10T23:11:56.606Z,13.10
2018-11-10T23:14:21.697Z,11.90
2018-11-10T23:16:46.821Z,12.83
2018-11-10T23:19:11.940Z,12.83
2018-11-10T23:21:37.048Z,13.27
2018-11-10T23:24:02.210Z,12.77
2018-11-10T23:26:27.332Z,12.60
2018-11-10T23:28:52.419Z,12.33
2018-11-10T23:31:17.510Z,14.57
2018-11-10T23:33:42.642Z,14.77
2018-11-10T23:36:07.751Z,15.27
2018-11-10T23:38:32.835Z,15.87
2018-11-10T23:40:57.956Z,14.40
2018-11-10T23:43:23.052Z,14.27
2018-11-10T23:45:48.172Z,15.87
2018-11-10T23:48:13.331Z,15.50
2018-11-10T23:50:38.456Z,15.17
2018-11-10T23:53:03.579Z,15.20
2018-11-10T23:55:28.674Z,17.90
2018-11-10T23:57:53.779Z,12.67
